Time;durP1;ratioP1;P1;durP2;ratioP2;P2;SDS_P1;SDS_P2;PMS_P1;PMS_P2;Temp;Humidity;BMP_temperature;BMP_pressure;BME280_temperature;BME280_humidity;BME280_pressure;Samples;Min_cycle;Max_cycle;Signal;HPM_P1;HPM_P2
2022/04/27 00:07:41;;;;;;;;;9.00;9.00;;;;;;;;2;261074234;261074234;-80
2022/04/27 00:16:42;;;;;;;;;7.00;7.00;;;;;;;;2;261076740;261076740;-80
2022/04/27 00:25:01;;;;;;;;;13.50;12.00;;;;;;;;2;261076551;261076551;-80
2022/04/27 00:34:02;;;;;;;;;9.50;9.50;;;;;;;;2;261076579;261076579;-79
2022/04/27 00:42:20;;;;;;;;;5.00;5.00;;;;;;;;2;261075499;261075499;-79
2022/04/27 00:51:22;;;;;;;;;8.50;8.50;;;;;;;;2;261075306;261075306;-80
2022/04/27 00:59:38;;;;;;;;;5.00;5.00;;;;;;;;2;261075999;261075999;-80
2022/04/27 01:08:39;;;;;;;;;7.50;7.50;;;;;;;;2;261075960;261075960;-79
2022/04/27 01:16:55;;;;;;;;;9.50;9.50;;;;;;;;2;261073777;261073777;-79
2022/04/27 01:25:59;;;;;;;;;11.50;11.50;;;;;;;;2;261074304;261074304;-79
2022/04/27 01:34:15;;;;;;;;;12.00;12.00;;;;;;;;2;261076757;261076757;-79
2022/04/27 01:43:15;;;;;;;;;13.50;13.50;;;;;;;;2;261076607;261076607;-79
2022/04/27 02:00:50;;;;;;;;;8.00;8.00;;;;;;;;2;261074882;261074882;-79
2022/04/27 02:09:06;;;;;;;;;13.50;9.50;;;;;;;;2;261072692;261072692;-79
2022/04/27 02:18:08;;;;;;;;;12.00;8.00;;;;;;;;2;261074720;261074720;-80
2022/04/27 02:26:23;;;;;;;;;10.00;10.00;;;;;;;;2;261074787;261074787;-79
2022/04/27 02:35:24;;;;;;;;;7.50;7.50;;;;;;;;2;261074276;261074276;-79
2022/04/27 02:43:39;;;;;;;;;18.50;9.50;;;;;;;;2;261078503;261078503;-79
2022/04/27 02:52:39;;;;;;;;;11.50;11.50;;;;;;;;2;261074459;261074459;-79
2022/04/27 03:00:55;;;;;;;;;20.00;13.50;;;;;;;;2;261077651;261077651;-79
2022/04/27 03:09:55;;;;;;;;;15.50;12.50;;;;;;;;2;261076909;261076909;-79
2022/04/27 03:18:30;;;;;;;;;15.50;15.50;;;;;;;;2;261076013;261076013;-79
2022/04/27 03:27:30;;;;;;;;;15.00;15.00;;;;;;;;2;261076815;261076815;-79
2022/04/27 03:35:46;;;;;;;;;12.50;12.50;;;;;;;;2;261074003;261074003;-78
2022/04/27 03:44:46;;;;;;;;;19.00;19.00;;;;;;;;2;261075330;261075330;-78
2022/04/27 03:53:02;;;;;;;;;10.00;10.00;;;;;;;;2;261074701;261074701;-79
2022/04/27 04:02:03;;;;;;;;;23.00;14.00;;;;;;;;2;261075170;261075170;-79
2022/04/27 04:10:18;;;;;;;;;17.00;17.00;;;;;;;;2;261077763;261077763;-79
2022/04/27 04:19:19;;;;;;;;;20.50;20.50;;;;;;;;2;261075451;261075451;-79
2022/04/27 04:36:53;;;;;;;;;23.00;20.00;;;;;;;;2;261075928;261075928;-79
2022/04/27 04:45:09;;;;;;;;;14.00;14.00;;;;;;;;2;261075631;261075631;-79
2022/04/27 04:54:09;;;;;;;;;28.50;16.50;;;;;;;;2;261075560;261075560;-79
2022/04/27 05:02:25;;;;;;;;;14.50;14.50;;;;;;;;2;261075506;261075506;-78
2022/04/27 05:11:26;;;;;;;;;26.00;14.00;;;;;;;;2;261075746;261075746;-79
2022/04/27 05:19:41;;;;;;;;;40.00;22.50;;;;;;;;2;261074972;261074972;-79
2022/04/27 05:37:17;;;;;;;;;22.00;22.00;;;;;;;;2;261078775;261078775;-81
2022/04/27 05:46:18;;;;;;;;;19.00;19.00;;;;;;;;2;261076370;261076370;-80
2022/04/27 05:54:33;;;;;;;;;15.50;15.50;;;;;;;;2;261074125;261074125;-80
2022/04/27 06:03:34;;;;;;;;;24.00;24.00;;;;;;;;2;261076967;261076967;-80
2022/04/27 06:11:49;;;;;;;;;16.00;16.00;;;;;;;;2;261076858;261076858;-80
2022/04/27 06:20:52;;;;;;;;;19.00;17.50;;;;;;;;2;261075970;261075970;-79
2022/04/27 06:29:07;;;;;;;;;24.00;16.50;;;;;;;;2;261074640;261074640;-78
2022/04/27 06:38:08;;;;;;;;;21.50;17.50;;;;;;;;2;261076333;261076333;-79
2022/04/27 06:46:23;;;;;;;;;49.00;27.50;;;;;;;;2;261077077;261077077;-78
2022/04/27 06:55:23;;;;;;;;;20.50;20.50;;;;;;;;2;261074307;261074307;-78
2022/04/27 07:03:39;;;;;;;;;21.00;21.00;;;;;;;;2;261074671;261074671;-79
2022/04/27 07:12:40;;;;;;;;;44.50;38.50;;;;;;;;2;261075452;261075452;-78
2022/04/27 07:20:55;;;;;;;;;33.00;24.00;;;;;;;;2;261076188;261076188;-79
2022/04/27 07:29:56;;;;;;;;;28.00;28.00;;;;;;;;2;261075100;261075100;-79
2022/04/27 07:38:12;;;;;;;;;22.00;22.00;;;;;;;;2;261075765;261075765;-79
2022/04/27 07:47:15;;;;;;;;;25.50;21.00;;;;;;;;2;261075427;261075427;-80
2022/04/27 07:56:55;;;;;;;;;36.50;26.50;;;;;;;;216655;22;261076430;-80
2022/04/27 08:05:12;;;;;;;;;28.50;28.00;;;;;;;;2;261074958;261074958;-80
2022/04/27 08:14:12;;;;;;;;;25.50;21.00;;;;;;;;2;261076237;261076237;-81
2022/04/27 08:22:31;;;;;;;;;23.00;23.00;;;;;;;;2;261076452;261076452;-81
2022/04/27 08:31:32;;;;;;;;;21.00;21.00;;;;;;;;2;261076278;261076278;-81
2022/04/27 08:39:51;;;;;;;;;29.00;24.00;;;;;;;;2;261076020;261076020;-82
2022/04/27 08:48:51;;;;;;;;;23.50;22.00;;;;;;;;2;261076385;261076385;-82
2022/04/27 08:55:02;;;;;;;;;23.50;23.50;;;;;;;;2;261077051;261077051;-82
2022/04/27 09:04:22;;;;;;;;;57.00;26.00;;;;;;;;2;261076087;261076087;-82
2022/04/27 09:12:46;;;;;;;;;26.50;26.50;;;;;;;;2;261075342;261075342;-82
2022/04/27 09:21:55;;;;;;;;;21.00;21.00;;;;;;;;2;261074533;261074533;-82
2022/04/27 09:30:39;;;;;;;;;33.00;31.50;;;;;;;;2;261075563;261075563;-83
2022/04/27 09:39:43;;;;;;;;;27.00;26.00;;;;;;;;2;261074654;261074654;-82
2022/04/27 09:48:04;;;;;;;;;37.50;28.50;;;;;;;;2;261074578;261074578;-83
2022/04/27 09:57:13;;;;;;;;;21.00;21.00;;;;;;;;2;261077313;261077313;-83
2022/04/27 10:05:33;;;;;;;;;27.00;26.50;;;;;;;;2;261076205;261076205;-83
2022/04/27 10:14:40;;;;;;;;;28.50;28.00;;;;;;;;2;261077697;261077697;-83
2022/04/27 10:23:24;;;;;;;;;;;;;;;;;;;;;
2022/04/27 10:32:42;;;;;;;;;21.00;21.00;;;;;;;;2;261104385;261104385;-83
2022/04/27 10:41:11;;;;;;;;;27.00;27.00;;;;;;;;2;261073109;261073109;-84
2022/04/27 10:50:13;;;;;;;;;19.50;19.50;;;;;;;;2;261076441;261076441;-83
2022/04/27 10:58:32;;;;;;;;;30.00;25.50;;;;;;;;2;261077116;261077116;-83
2022/04/27 11:07:42;;;;;;;;;23.50;23.50;;;;;;;;2;261075937;261075937;-83
2022/04/27 11:16:10;;;;;;;;;25.00;21.00;;;;;;;;2;261076597;261076597;-83
2022/04/27 11:25:11;;;;;;;;;22.50;22.50;;;;;;;;2;261075122;261075122;-82
2022/04/27 11:33:27;;;;;;;;;17.50;17.50;;;;;;;;2;261074888;261074888;-82
2022/04/27 11:42:27;;;;;;;;;13.00;13.00;;;;;;;;2;261073468;261073468;-82
2022/04/27 11:50:44;;;;;;;;;22.00;22.00;;;;;;;;2;261074679;261074679;-82
2022/04/27 11:59:46;;;;;;;;;19.00;19.00;;;;;;;;2;261076229;261076229;-82
2022/04/27 12:03:23;;;;;;;;;12.00;12.00;;;;;;;;2;216619211;216619211;-82
2022/04/27 12:05:50;;;;;;;;;15.50;15.25;;;;;;;;6274219;22;45405;-82
2022/04/27 12:08:18;;;;;;;;;25.00;19.00;;;;;;;;6278545;22;45304;-82
2022/04/27 12:17:28;;;;;;;;;;;;;;;;;;433229;22;261072062;-82
2022/04/27 12:25:44;;;;;;;;;7.00;7.00;;;;;;;;2;261074266;261074266;-81
2022/04/27 12:43:20;;;;;;;;;12.00;12.00;;;;;;;;2;261073247;261073247;-81
2022/04/27 12:52:23;;;;;;;;;21.00;18.00;;;;;;;;2;261076626;261076626;-81
2022/04/27 13:00:48;;;;;;;;;19.00;12.50;;;;;;;;2;261075764;261075764;-81
2022/04/27 13:18:23;;;;;;;;;16.00;16.00;;;;;;;;2;261078805;261078805;-81
2022/04/27 13:27:25;;;;;;;;;22.50;22.50;;;;;;;;2;261073985;261073985;-81
2022/04/27 13:35:40;;;;;;;;;16.50;16.50;;;;;;;;2;261076887;261076887;-81
2022/04/27 13:44:49;;;;;;;;;15.50;15.50;;;;;;;;2;261076586;261076586;-81
2022/04/27 13:53:05;;;;;;;;;16.00;16.00;;;;;;;;2;261081133;261081133;-81
2022/04/27 14:02:05;;;;;;;;;10.50;10.50;;;;;;;;2;261075870;261075870;-81
2022/04/27 14:10:21;;;;;;;;;11.50;11.50;;;;;;;;2;261077952;261077952;-81
2022/04/27 14:19:21;;;;;;;;;12.00;12.00;;;;;;;;2;261076677;261076677;-81
2022/04/27 14:27:36;;;;;;;;;28.00;20.00;;;;;;;;2;261073451;261073451;-81
2022/04/27 14:36:37;;;;;;;;;8.00;8.00;;;;;;;;2;261072570;261072570;-81
2022/04/27 14:44:52;;;;;;;;;19.50;11.00;;;;;;;;2;261074595;261074595;-81
2022/04/27 14:53:53;;;;;;;;;10.00;10.00;;;;;;;;2;261078254;261078254;-81
2022/04/27 15:02:09;;;;;;;;;10.00;10.00;;;;;;;;2;261077512;261077512;-81
2022/04/27 15:11:09;;;;;;;;;9.50;9.50;;;;;;;;2;261075584;261075584;-81
2022/04/27 15:19:24;;;;;;;;;10.00;10.00;;;;;;;;2;261074718;261074718;-81
2022/04/27 15:28:25;;;;;;;;;10.00;10.00;;;;;;;;2;261078821;261078821;-81
2022/04/27 15:36:40;;;;;;;;;15.50;11.00;;;;;;;;2;261071843;261071843;-81
2022/04/27 15:45:41;;;;;;;;;8.00;8.00;;;;;;;;2;261073251;261073251;-81
2022/04/27 15:53:56;;;;;;;;;14.00;14.00;;;;;;;;2;261075985;261075985;-81
2022/04/27 16:02:57;;;;;;;;;12.00;12.00;;;;;;;;2;261077852;261077852;-80
2022/04/27 16:11:13;;;;;;;;;11.00;11.00;;;;;;;;2;261073960;261073960;-81
2022/04/27 16:20:13;;;;;;;;;5.50;5.50;;;;;;;;2;261075284;261075284;-81
2022/04/27 16:28:29;;;;;;;;;6.50;6.50;;;;;;;;2;261078705;261078705;-80
2022/04/27 16:37:30;;;;;;;;;12.00;12.00;;;;;;;;2;261075415;261075415;-80
2022/04/27 16:45:45;;;;;;;;;12.50;12.50;;;;;;;;2;261071639;261071639;-81
2022/04/27 16:54:47;;;;;;;;;15.00;15.00;;;;;;;;2;261074579;261074579;-81
2022/04/27 17:03:03;;;;;;;;;9.50;9.50;;;;;;;;2;261077306;261077306;-81
2022/04/27 17:12:03;;;;;;;;;19.50;11.50;;;;;;;;2;261077835;261077835;-80
2022/04/27 17:20:19;;;;;;;;;9.50;9.50;;;;;;;;2;261077563;261077563;-80
2022/04/27 17:29:19;;;;;;;;;22.50;14.00;;;;;;;;2;261075822;261075822;-80
2022/04/27 17:37:35;;;;;;;;;5.00;5.00;;;;;;;;2;261072935;261072935;-80
2022/04/27 17:46:35;;;;;;;;;10.00;10.00;;;;;;;;2;261075873;261075873;-80
2022/04/27 17:54:51;;;;;;;;;21.00;10.00;;;;;;;;2;261074776;261074776;-80
2022/04/27 18:03:53;;;;;;;;;14.00;11.00;;;;;;;;2;261076424;261076424;-80
2022/04/27 18:12:08;;;;;;;;;12.00;12.00;;;;;;;;2;261074246;261074246;-80
2022/04/27 18:21:09;;;;;;;;;14.50;14.50;;;;;;;;2;261074708;261074708;-80
2022/04/27 18:29:25;;;;;;;;;12.50;12.50;;;;;;;;2;261074702;261074702;-80
2022/04/27 18:38:26;;;;;;;;;18.00;11.50;;;;;;;;2;261075070;261075070;-80
2022/04/27 18:56:01;;;;;;;;;10.00;10.00;;;;;;;;2;261074307;261074307;-80
2022/04/27 19:04:17;;;;;;;;;26.50;10.00;;;;;;;;2;261073655;261073655;-80
2022/04/27 19:13:17;;;;;;;;;21.50;10.00;;;;;;;;2;260501883;260501883;-80
2022/04/27 19:21:34;;;;;;;;;18.00;18.00;;;;;;;;2;261078157;261078157;-81
2022/04/27 19:30:38;;;;;;;;;16.50;16.50;;;;;;;;2;261074909;261074909;-80
2022/04/27 19:38:55;;;;;;;;;24.50;15.50;;;;;;;;2;261074557;261074557;-80
2022/04/27 19:47:57;;;;;;;;;9.50;9.50;;;;;;;;2;261079114;261079114;-81
2022/04/27 19:56:17;;;;;;;;;42.50;29.50;;;;;;;;2;261069757;261069757;-81
2022/04/27 20:05:21;;;;;;;;;23.50;23.50;;;;;;;;2;261072102;261072102;-81
2022/04/27 20:13:47;;;;;;;;;20.00;20.00;;;;;;;;2;261077457;261077457;-81
2022/04/27 20:26:08;;;;;;;;;23.00;23.00;;;;;;;;2;261075185;261075185;-81
2022/04/27 20:34:26;;;;;;;;;44.00;23.00;;;;;;;;2;261074450;261074450;-81
2022/04/27 20:43:26;;;;;;;;;27.00;23.00;;;;;;;;2;261074337;261074337;-81
2022/04/27 21:01:04;;;;;;;;;31.50;25.50;;;;;;;;2;261072443;261072443;-81
2022/04/27 21:09:19;;;;;;;;;26.00;20.50;;;;;;;;2;261073979;261073979;-81
2022/04/27 21:18:20;;;;;;;;;36.50;24.50;;;;;;;;2;261075650;261075650;-81
2022/04/27 21:26:36;;;;;;;;;27.50;27.00;;;;;;;;2;261054864;261054864;-81
2022/04/27 21:35:37;;;;;;;;;39.00;26.50;;;;;;;;2;261074834;261074834;-81
2022/04/27 21:43:53;;;;;;;;;29.50;27.00;;;;;;;;2;261073903;261073903;-81
2022/04/27 21:52:53;;;;;;;;;38.00;26.00;;;;;;;;2;261077129;261077129;-81
2022/04/27 22:01:09;;;;;;;;;26.50;26.50;;;;;;;;2;261071783;261071783;-81
2022/04/27 22:10:09;;;;;;;;;28.50;27.50;;;;;;;;2;261075308;261075308;-81
2022/04/27 22:18:26;;;;;;;;;29.50;27.50;;;;;;;;2;261074624;261074624;-81
2022/04/27 22:27:26;;;;;;;;;44.50;22.50;;;;;;;;2;261076018;261076018;-81
2022/04/27 22:35:42;;;;;;;;;31.50;23.50;;;;;;;;2;261075647;261075647;-81
2022/04/27 22:44:43;;;;;;;;;22.00;22.00;;;;;;;;2;261074128;261074128;-81
2022/04/27 22:52:58;;;;;;;;;29.50;26.00;;;;;;;;2;261076519;261076519;-81
2022/04/27 23:01:59;;;;;;;;;20.50;20.50;;;;;;;;2;261072972;261072972;-81
2022/04/27 23:19:33;;;;;;;;;20.50;20.50;;;;;;;;2;261073216;261073216;-80
2022/04/27 23:27:48;;;;;;;;;31.00;30.00;;;;;;;;2;261074052;261074052;-81
2022/04/27 23:36:49;;;;;;;;;26.00;26.00;;;;;;;;2;261075867;261075867;-81
2022/04/27 23:45:05;;;;;;;;;31.50;26.00;;;;;;;;2;261076494;261076494;-80
2022/04/27 23:54:05;;;;;;;;;31.00;19.50;;;;;;;;2;261073410;261073410;-80
